Ana Sayfa
METAR-TAF:

METAR-TAF

Havaalanları :

Balıkesir Merkez Havalimanı

Balıkesir, Türkiye

Enlem: 39-37N, Boylam: 027-55E, yükseklik: 101 m

Güncel hava durumu gözlemi

Rapor saat 16:50 UTC de 1 saat ve 7 dakika önce yapıldı.
Rüzgar kuzey/kuzeydoğudan 15 kt
Sıcaklık 28°C
Nem 55%
Basınç 1010 hPa
Görüş mesafesi 10 km veya daha fazla
3500 ft yükseklikte az bulutlu

METAR: LTBF 181650Z 02015KT 9999 FEW035 28/18 Q1010 NOSIG

Saat: 20:57 (17:57 UTC)

Tahmin

Rapor saat 16:40 UTC de 1 saat ve 17 dakika önce yapıldı.
Ayın 18'si saat 18 UTC'den ayın 19'si saat 03 UTC'ye kadar geçerli Tahmin
Rüzgar kuzeydan 8 kt
Görüş mesafesi 10 km veya daha fazla
1500 m altında bulut yok ve kümülonimbus yok

TAF: LTBF 181640Z 1818/1903 01008KT CAVOK

4.000'den fazla havaalanı için hava durumu gözlemleri ve tahminleri (METAR ve TAF raporları).

Kullanılabilir istasyonlar harita üzerinde sarı ve kırmızı noktalarla gösterilir.

İstasyonun adını görmek için fareyi noktanın üzerinde gezdirin.

Sonrasında hava gözlem ve tahminlerini görmek için tıklayın.

Haritayı değiştirmek için: yaklaştırmak için siyah artı işaretli yeşil düğmeye ve uzaklaştırmak için de eksi işaretli düğmeye hızla tıklayın; bitişik haritalar için yeşil okları kullanın.


METAR-TAF: